EBBR/BRU METAR and TAF weather

Enter ICAO airport designator
Station Type Date Time Source
EBBR METAR 2023/02/06 18:50 UTC NOAA

EBBR 061850Z 05001KT 9999 BKN035 03/01 Q1040 NOSIG


Station Type Date Time Source
EBBR Decoded METAR 2023/02/06 18:50 UTC NOAA

Bruxelles National, Belgium (EBBR) 50-54N 004-32E 58M
Feb 06, 2023 - 01:50 PM EST / 2023.02.06 1850 UTC
Wind: from the NE (050 degrees) at 1 MPH (1 KT):0
Visibility: greater than 7 mile(s):0
Sky conditions: mostly cloudy
Temperature: 37 F (3 C)
Dew Point: 33 F (1 C)
Relative Humidity: 86%
Pressure (altimeter): 30.71 in. Hg (1040 hPa)
ob: EBBR 061850Z 05001KT 9999 BKN035 03/01 Q1040 NOSIG
cycle: 19

Station Type Date Time Source
EBBR TAF 2023/02/06 18:51 UTC NOAA

TAF TAF EBBR 061701Z 0618/0724 06005KT 9999 FEW025 SCT030
BECMG 0700/0703 3500 BR PROB40
TEMPO 0702/0709 2000 MIFG PROB30
TEMPO 0703/0708 0400 FZFG OVC001
BECMG 0708/0710 CAVOK

Example: see airport list